createdAt,value
2019-03-15T00:02:06.220Z,5.17
2019-03-15T00:04:34.778Z,5.16
2019-03-15T00:07:03.162Z,5.17
2019-03-15T00:09:31.559Z,5.20
2019-03-15T00:12:02.606Z,5.21
2019-03-15T00:14:31.999Z,5.22
2019-03-15T00:17:00.385Z,5.22
2019-03-15T00:19:31.239Z,5.17
2019-03-15T00:21:59.665Z,5.14
2019-03-15T00:24:28.058Z,5.12
2019-03-15T00:26:58.986Z,5.13
2019-03-15T00:29:27.468Z,5.14
2019-03-15T00:31:55.857Z,5.05
2019-03-15T00:34:28.950Z,5.09
2019-03-15T00:36:57.335Z,5.01
2019-03-15T00:39:25.801Z,5.07
2019-03-15T00:41:54.434Z,5.10
2019-03-15T00:44:23.786Z,5.13
2019-03-15T00:46:52.196Z,5.13
2019-03-15T00:49:23.140Z,5.15
2019-03-15T00:51:51.535Z,5.20
2019-03-15T00:54:19.962Z,5.15
2019-03-15T00:56:48.454Z,5.14
2019-03-15T00:59:16.919Z,5.18
2019-03-15T01:01:47.470Z,5.14
2019-03-15T01:04:16.959Z,5.14
2019-03-15T01:06:49.502Z,5.09
2019-03-15T01:09:17.982Z,5.15
2019-03-15T01:11:46.345Z,5.06
2019-03-15T01:14:14.773Z,5.07
2019-03-15T01:16:43.164Z,5.01
2019-03-15T01:19:11.597Z,5.06
2019-03-15T01:21:42.681Z,5.05
2019-03-15T01:24:11.065Z,5.02
2019-03-15T01:26:39.464Z,5.02
2019-03-15T01:29:07.837Z,5.04
2019-03-15T01:31:36.313Z,4.94
2019-03-15T01:34:04.680Z,4.96
2019-03-15T01:36:34.169Z,4.90
2019-03-15T01:39:02.725Z,4.88
2019-03-15T01:41:31.135Z,4.86
2019-03-15T01:43:59.530Z,4.83
2019-03-15T01:46:27.905Z,4.87
2019-03-15T01:48:56.313Z,4.81
2019-03-15T01:51:24.798Z,4.83
2019-03-15T01:53:53.354Z,4.84
2019-03-15T01:56:22.829Z,4.78
2019-03-15T01:58:51.234Z,4.83
2019-03-15T02:01:19.641Z,4.78
2019-03-15T02:03:51.849Z,4.73
2019-03-15T02:06:22.285Z,4.68
2019-03-15T02:08:50.691Z,4.68
2019-03-15T02:11:19.088Z,4.66
2019-03-15T02:13:50.026Z,4.65
2019-03-15T02:16:17.612Z,4.68
2019-03-15T02:18:46.011Z,4.61
2019-03-15T02:21:14.442Z,4.66
2019-03-15T02:23:43.919Z,4.63
2019-03-15T02:26:12.329Z,4.63
2019-03-15T02:28:40.720Z,4.59
2019-03-15T02:31:09.120Z,4.67
2019-03-15T02:33:37.519Z,4.65
2019-03-15T02:36:05.892Z,4.68
2019-03-15T02:38:35.342Z,4.73
2019-03-15T02:41:05.828Z,4.80
2019-03-15T02:43:34.287Z,4.84
2019-03-15T02:46:02.651Z,4.86
2019-03-15T02:48:31.158Z,4.85
2019-03-15T02:50:59.564Z,4.91
2019-03-15T02:53:27.994Z,4.93
2019-03-15T02:55:56.391Z,4.90
2019-03-15T02:58:28.811Z,4.94
2019-03-15T03:00:56.439Z,4.96
2019-03-15T03:03:24.845Z,4.98
2019-03-15T03:05:55.962Z,4.95
2019-03-15T03:08:29.201Z,4.97
2019-03-15T03:11:00.060Z,5.00
2019-03-15T03:13:28.450Z,5.00
2019-03-15T03:15:56.852Z,5.04
2019-03-15T03:18:25.241Z,4.95
2019-03-15T03:20:53.639Z,4.99
2019-03-15T03:23:26.915Z,4.98
2019-03-15T03:25:55.310Z,4.96
2019-03-15T03:28:24.751Z,4.93
2019-03-15T03:30:53.162Z,4.90
2019-03-15T03:33:21.563Z,4.88
2019-03-15T03:35:49.939Z,4.90
2019-03-15T03:38:19.601Z,4.89
2019-03-15T03:40:48.002Z,4.87
2019-03-15T03:43:16.416Z,4.86
2019-03-15T03:45:44.765Z,4.84
2019-03-15T03:48:15.772Z,4.82
2019-03-15T03:50:44.302Z,4.80
2019-03-15T03:53:12.759Z,4.79
2019-03-15T03:55:42.221Z,4.74
2019-03-15T03:58:10.679Z,4.70
2019-03-15T04:00:39.121Z,4.73
2019-03-15T04:03:07.649Z,4.78
2019-03-15T04:05:36.033Z,4.81
2019-03-15T04:08:04.679Z,4.83
2019-03-15T04:10:36.954Z,4.87
2019-03-15T04:13:06.395Z,4.87
2019-03-15T04:15:34.788Z,4.84
2019-03-15T04:18:06.868Z,4.87
2019-03-15T04:20:35.197Z,4.84
2019-03-15T04:23:05.982Z,4.83
2019-03-15T04:25:34.393Z,4.82
2019-03-15T04:28:02.804Z,4.80
2019-03-15T04:30:33.324Z,4.80
2019-03-15T04:33:02.424Z,4.86
2019-03-15T04:35:30.844Z,4.85
2019-03-15T04:37:59.284Z,4.95
2019-03-15T04:40:27.704Z,4.90
2019-03-15T04:42:56.098Z,4.90
2019-03-15T04:45:28.419Z,4.96
2019-03-15T04:47:56.847Z,5.00
2019-03-15T04:50:25.278Z,4.99
2019-03-15T04:52:53.672Z,5.02
2019-03-15T04:55:22.084Z,5.01
2019-03-15T04:57:50.473Z,5.02
2019-03-15T05:00:18.960Z,5.00
2019-03-15T05:02:48.396Z,5.00
2019-03-15T05:05:16.852Z,4.93
2019-03-15T05:07:48.100Z,4.88
2019-03-15T05:10:19.900Z,4.92
2019-03-15T05:12:48.920Z,4.83
2019-03-15T05:15:18.372Z,4.78
2019-03-15T05:17:47.873Z,4.81
2019-03-15T05:20:16.282Z,4.83
2019-03-15T05:22:44.655Z,4.83
2019-03-15T05:25:13.051Z,4.85
2019-03-15T05:27:41.536Z,4.91
2019-03-15T05:30:11.343Z,4.99
2019-03-15T05:32:39.756Z,5.07
2019-03-15T05:35:08.640Z,5.10
2019-03-15T05:37:37.046Z,5.07
2019-03-15T05:40:07.395Z,5.11
2019-03-15T05:42:35.779Z,5.19
2019-03-15T05:45:06.103Z,5.24
2019-03-15T05:47:34.594Z,5.25
2019-03-15T05:50:03.697Z,5.31
2019-03-15T05:52:33.134Z,5.27
2019-03-15T05:55:01.523Z,5.23
2019-03-15T05:57:29.911Z,5.21
2019-03-15T05:59:58.314Z,5.28
2019-03-15T06:02:26.716Z,5.28
2019-03-15T06:04:55.122Z,5.38
2019-03-15T06:07:23.488Z,5.34
2019-03-15T06:09:51.966Z,5.41
2019-03-15T06:12:22.794Z,5.45
2019-03-15T06:14:51.176Z,5.52
2019-03-15T06:17:19.588Z,5.55
2019-03-15T06:19:47.967Z,5.54
2019-03-15T06:22:16.373Z,5.60
2019-03-15T06:24:45.845Z,5.63
2019-03-15T06:27:14.245Z,5.65
2019-03-15T06:29:42.631Z,5.68
2019-03-15T06:32:11.075Z,5.70
2019-03-15T06:34:41.572Z,5.71
2019-03-15T06:37:09.975Z,5.68
2019-03-15T06:39:41.416Z,5.70
2019-03-15T06:42:12.166Z,5.68
2019-03-15T06:44:39.944Z,5.75
2019-03-15T06:47:12.206Z,5.77
2019-03-15T06:49:40.611Z,5.78
2019-03-15T06:52:08.994Z,5.79
2019-03-15T06:54:37.429Z,5.79
2019-03-15T06:57:06.554Z,5.87
2019-03-15T06:59:35.095Z,5.83
2019-03-15T07:02:20.777Z,5.87
2019-03-15T07:04:55.563Z,5.88
2019-03-15T07:07:23.953Z,5.83
2019-03-15T07:09:52.878Z,5.78
2019-03-15T07:12:21.266Z,5.75
2019-03-15T07:14:51.996Z,5.83
2019-03-15T07:17:20.486Z,5.86
2019-03-15T07:19:48.859Z,5.90
2019-03-15T07:22:20.013Z,5.95
2019-03-15T07:24:48.634Z,5.92
2019-03-15T07:27:17.031Z,6.04
2019-03-15T07:29:45.427Z,6.02
2019-03-15T07:32:13.861Z,6.03
2019-03-15T07:34:42.247Z,6.10
2019-03-15T07:37:10.657Z,6.09
2019-03-15T07:39:39.052Z,6.15
2019-03-15T07:42:07.445Z,6.15
2019-03-15T07:44:39.922Z,6.11
2019-03-15T07:47:08.381Z,6.06
2019-03-15T07:49:39.193Z,6.11
2019-03-15T07:52:07.520Z,6.21
2019-03-15T07:54:38.228Z,6.34
2019-03-15T07:57:06.284Z,6.40
2019-03-15T07:59:39.448Z,6.39
2019-03-15T08:02:07.338Z,6.42
2019-03-15T08:04:36.175Z,6.24
2019-03-15T08:07:04.588Z,6.36
2019-03-15T08:09:32.970Z,6.47
2019-03-15T08:12:01.753Z,6.49
2019-03-15T08:14:30.135Z,6.53
2019-03-15T08:16:58.518Z,6.51
2019-03-15T08:19:26.913Z,6.47
2019-03-15T08:21:56.746Z,6.58
2019-03-15T08:24:25.260Z,6.71
2019-03-15T08:26:53.672Z,6.69
2019-03-15T08:29:22.042Z,6.74
2019-03-15T08:31:50.468Z,6.70
2019-03-15T08:34:18.990Z,6.81
2019-03-15T08:36:47.376Z,6.87
2019-03-15T08:39:17.434Z,7.08
2019-03-15T08:41:45.838Z,7.08
2019-03-15T08:44:14.329Z,7.35
2019-03-15T08:46:42.704Z,7.35
2019-03-15T08:49:11.114Z,7.44
2019-03-15T08:51:39.517Z,7.57
2019-03-15T08:54:07.912Z,7.72
2019-03-15T08:56:36.293Z,7.78
2019-03-15T08:59:04.759Z,7.80
2019-03-15T09:01:33.177Z,8.02
2019-03-15T09:04:01.583Z,8.03
2019-03-15T09:06:30.019Z,7.95
2019-03-15T09:08:58.390Z,8.01
2019-03-15T09:11:26.783Z,8.12
2019-03-15T09:13:55.205Z,8.24
2019-03-15T09:16:24.635Z,8.34
2019-03-15T09:18:55.448Z,8.21
2019-03-15T09:21:23.164Z,8.36
2019-03-15T09:23:51.589Z,8.43
2019-03-15T09:26:20.001Z,8.74
2019-03-15T09:28:48.371Z,8.80
2019-03-15T09:31:16.760Z,8.53
2019-03-15T09:33:45.149Z,8.77
2019-03-15T09:36:13.533Z,8.80
2019-03-15T09:38:41.928Z,8.65
2019-03-15T09:41:14.159Z,8.54
2019-03-15T09:43:45.162Z,8.47
2019-03-15T09:46:12.746Z,8.66
2019-03-15T09:48:43.743Z,8.68
2019-03-15T09:51:11.269Z,8.97
2019-03-15T09:53:39.716Z,8.94
2019-03-15T09:56:08.123Z,8.95
2019-03-15T09:58:36.509Z,8.44
2019-03-15T10:01:05.307Z,8.38
2019-03-15T10:03:34.106Z,8.37
2019-03-15T10:06:14.240Z,8.61
2019-03-15T10:08:35.452Z,8.75
2019-03-15T10:11:04.803Z,8.92
2019-03-15T10:13:33.285Z,8.82
2019-03-15T10:16:02.716Z,8.78
2019-03-15T10:18:35.161Z,8.67
2019-03-15T10:21:02.792Z,8.59
2019-03-15T10:23:31.147Z,8.65
2019-03-15T10:25:59.512Z,8.46
2019-03-15T10:28:27.933Z,8.37
2019-03-15T10:30:56.344Z,8.34
2019-03-15T10:33:24.780Z,8.24
2019-03-15T10:35:55.669Z,8.11
2019-03-15T10:38:26.162Z,8.07
2019-03-15T10:40:54.596Z,8.09
2019-03-15T10:43:24.082Z,8.10
2019-03-15T10:45:52.461Z,7.95
2019-03-15T10:48:25.558Z,7.98
2019-03-15T10:50:51.069Z,8.17
2019-03-15T10:53:22.974Z,8.37
2019-03-15T10:56:00.190Z,8.34
2019-03-15T10:58:20.659Z,8.25
2019-03-15T11:00:49.083Z,8.20
2019-03-15T11:03:17.485Z,7.97
2019-03-15T11:05:45.928Z,7.86
2019-03-15T11:08:14.297Z,7.79
2019-03-15T11:10:42.728Z,7.80
2019-03-15T11:13:11.136Z,7.83
2019-03-15T11:15:39.572Z,7.73
2019-03-15T11:18:07.999Z,7.65
2019-03-15T11:20:36.902Z,7.58
2019-03-15T11:23:05.275Z,7.65
2019-03-15T11:25:33.666Z,7.66
2019-03-15T11:28:02.187Z,7.62
2019-03-15T11:30:31.185Z,7.56
2019-03-15T11:32:59.577Z,7.43
2019-03-15T11:35:27.988Z,7.48
2019-03-15T11:38:02.186Z,7.52
2019-03-15T11:40:38.045Z,7.38
2019-03-15T11:43:06.533Z,7.51
2019-03-15T11:45:34.969Z,7.43
2019-03-15T11:48:04.456Z,7.50
2019-03-15T11:50:33.064Z,7.37
2019-03-15T11:53:02.605Z,7.21
2019-03-15T11:55:32.104Z,7.27
2019-03-15T11:58:01.614Z,7.14
2019-03-15T12:00:30.038Z,7.22
2019-03-15T12:02:58.431Z,7.10
2019-03-15T12:05:26.919Z,7.17
2019-03-15T12:07:55.302Z,7.17
2019-03-15T12:10:23.735Z,7.20
2019-03-15T12:12:54.801Z,7.29
2019-03-15T12:15:23.243Z,7.36
2019-03-15T12:17:51.625Z,7.22
2019-03-15T12:20:24.426Z,7.08
2019-03-15T12:22:52.892Z,7.04
2019-03-15T12:25:21.354Z,7.23
2019-03-15T12:27:49.748Z,7.21
2019-03-15T12:30:18.251Z,7.12
2019-03-15T12:32:46.607Z,7.16
2019-03-15T12:35:17.954Z,7.16
2019-03-15T12:37:47.439Z,7.03
2019-03-15T12:40:16.961Z,7.11
2019-03-15T12:42:47.942Z,7.10
2019-03-15T12:45:16.488Z,7.20
2019-03-15T12:47:49.943Z,7.33
2019-03-15T12:50:22.155Z,7.33
2019-03-15T12:52:50.593Z,7.33
2019-03-15T12:55:18.979Z,7.44
2019-03-15T12:57:49.322Z,7.45
2019-03-15T13:00:21.006Z,7.45
2019-03-15T13:02:53.240Z,7.47
2019-03-15T13:05:21.636Z,7.52
2019-03-15T13:07:50.055Z,7.55
2019-03-15T13:10:23.761Z,7.59
2019-03-15T13:12:55.952Z,7.55
2019-03-15T13:15:24.335Z,7.56
2019-03-15T13:17:52.748Z,7.49
2019-03-15T13:20:23.482Z,7.57
2019-03-15T13:22:51.892Z,7.64
2019-03-15T13:25:20.285Z,7.67
2019-03-15T13:27:48.702Z,7.75
2019-03-15T13:30:22.993Z,7.81
2019-03-15T13:32:51.449Z,7.89
2019-03-15T13:35:19.927Z,7.97
2019-03-15T13:37:50.733Z,8.06
2019-03-15T13:40:20.573Z,8.17
2019-03-15T13:42:49.058Z,8.32
2019-03-15T13:45:17.784Z,8.48
2019-03-15T13:47:46.234Z,8.52
2019-03-15T13:50:18.912Z,8.53
2019-03-15T13:52:47.315Z,8.57
2019-03-15T13:55:15.761Z,8.48
2019-03-15T13:57:47.643Z,8.51
2019-03-15T14:00:22.397Z,8.71
2019-03-15T14:02:55.514Z,8.93
2019-03-15T14:05:26.414Z,8.93
2019-03-15T14:07:54.792Z,9.28
2019-03-15T14:10:23.281Z,9.28
2019-03-15T14:12:51.678Z,9.24
2019-03-15T14:15:20.816Z,9.30
2019-03-15T14:17:49.225Z,9.27
2019-03-15T14:20:20.350Z,9.27
2019-03-15T14:22:49.550Z,9.31
2019-03-15T14:25:23.521Z,9.30
2019-03-15T14:27:52.983Z,9.33
2019-03-15T14:30:25.171Z,9.36
2019-03-15T14:32:54.505Z,9.38
2019-03-15T14:35:23.124Z,9.32
2019-03-15T14:37:52.694Z,9.35
2019-03-15T14:40:23.694Z,9.44
2019-03-15T14:42:52.125Z,9.38
2019-03-15T14:45:20.532Z,9.19
2019-03-15T14:47:48.946Z,9.22
2019-03-15T14:50:17.540Z,9.26
2019-03-15T14:52:45.952Z,9.45
2019-03-15T14:55:16.842Z,9.43
2019-03-15T14:57:52.605Z,9.27
2019-03-15T15:00:20.395Z,9.19
2019-03-15T15:02:48.778Z,9.02
2019-03-15T15:05:17.178Z,9.02
2019-03-15T15:07:46.498Z,8.90
2019-03-15T15:10:16.153Z,8.94
2019-03-15T15:12:44.545Z,8.96
2019-03-15T15:15:15.104Z,8.94
2019-03-15T15:17:43.487Z,9.02
2019-03-15T15:20:12.623Z,8.95
2019-03-15T15:22:41.068Z,8.85
2019-03-15T15:25:14.979Z,8.70
2019-03-15T15:27:43.611Z,8.60
2019-03-15T15:30:13.756Z,8.41
2019-03-15T15:32:42.137Z,8.31
2019-03-15T15:35:15.149Z,8.22
2019-03-15T15:37:46.352Z,8.28
2019-03-15T15:40:19.584Z,8.31
2019-03-15T15:42:48.219Z,8.27
2019-03-15T15:45:16.857Z,8.26
2019-03-15T15:47:45.258Z,8.20
2019-03-15T15:50:15.798Z,8.15
2019-03-15T15:52:44.771Z,8.11
2019-03-15T15:55:15.268Z,8.15
2019-03-15T15:57:43.678Z,8.22
2019-03-15T16:00:19.281Z,8.03
2019-03-15T16:02:47.766Z,7.99
2019-03-15T16:05:19.828Z,7.99
2019-03-15T16:07:48.209Z,7.98
2019-03-15T16:10:18.169Z,7.96
2019-03-15T16:12:50.000Z,8.02
2019-03-15T16:15:19.497Z,7.93
2019-03-15T16:17:48.904Z,7.86
2019-03-15T16:20:17.291Z,7.76
2019-03-15T16:22:45.667Z,7.70
2019-03-15T16:25:17.615Z,7.68
2019-03-15T16:27:46.049Z,7.64
2019-03-15T16:30:19.233Z,7.70
2019-03-15T16:32:49.612Z,7.64
2019-03-15T16:35:18.151Z,7.59
2019-03-15T16:37:46.547Z,7.57
2019-03-15T16:40:17.257Z,7.54
2019-03-15T16:42:45.641Z,7.57
2019-03-15T16:45:27.761Z,7.49
2019-03-15T16:47:59.592Z,7.40
2019-03-15T16:50:27.977Z,7.29
2019-03-15T16:52:56.359Z,7.29
2019-03-15T16:55:24.749Z,7.23
2019-03-15T16:57:57.413Z,7.26
2019-03-15T17:00:25.931Z,7.23
2019-03-15T17:02:54.373Z,7.23
2019-03-15T17:05:22.773Z,7.28
2019-03-15T17:07:53.656Z,7.26
2019-03-15T17:10:22.069Z,7.19
2019-03-15T17:12:55.814Z,7.15
2019-03-15T17:15:28.719Z,7.04
2019-03-15T17:17:57.297Z,7.04
2019-03-15T17:20:25.663Z,6.97
2019-03-15T17:22:54.027Z,6.89
2019-03-15T17:25:24.107Z,6.82
2019-03-15T17:27:52.482Z,6.88
2019-03-15T17:30:20.946Z,6.84
2019-03-15T17:32:50.303Z,6.86
2019-03-15T17:35:20.083Z,6.88
2019-03-15T17:37:48.758Z,6.84
2019-03-15T17:40:21.783Z,6.87
2019-03-15T17:42:50.311Z,6.83
2019-03-15T17:45:18.821Z,6.86
2019-03-15T17:47:47.678Z,6.79
2019-03-15T17:50:27.000Z,6.68
2019-03-15T17:52:56.131Z,6.68
2019-03-15T17:55:25.590Z,6.65
2019-03-15T17:57:59.907Z,6.67
2019-03-15T18:00:45.284Z,6.61
2019-03-15T18:03:21.510Z,6.34
2019-03-15T18:05:46.598Z,6.20
2019-03-15T18:08:18.969Z,6.14
2019-03-15T18:10:48.415Z,6.16
2019-03-15T18:13:16.841Z,6.17
2019-03-15T18:15:45.224Z,6.10
2019-03-15T18:18:14.589Z,6.13
2019-03-15T18:20:43.019Z,6.20
2019-03-15T18:23:11.479Z,6.22
2019-03-15T18:25:40.976Z,6.22
2019-03-15T18:28:09.416Z,6.22
2019-03-15T18:30:37.790Z,6.25
2019-03-15T18:33:07.288Z,6.28
2019-03-15T18:35:35.671Z,6.35
2019-03-15T18:38:04.079Z,6.59
2019-03-15T18:40:36.001Z,6.54
2019-03-15T18:43:08.300Z,6.60
2019-03-15T18:45:36.607Z,6.62
2019-03-15T18:48:07.499Z,6.60
2019-03-15T18:50:35.907Z,6.63
2019-03-15T18:53:04.284Z,6.71
2019-03-15T18:55:32.662Z,6.70
2019-03-15T18:58:01.102Z,6.71
2019-03-15T19:00:29.753Z,6.63
2019-03-15T19:02:59.980Z,6.65
2019-03-15T19:05:28.361Z,6.72
2019-03-15T19:07:57.098Z,6.71
2019-03-15T19:10:26.444Z,6.69
2019-03-15T19:12:58.740Z,6.69
2019-03-15T19:15:27.128Z,6.63
2019-03-15T19:17:55.534Z,6.61
2019-03-15T19:20:24.156Z,6.68
2019-03-15T19:22:56.852Z,6.65
2019-03-15T19:25:25.315Z,6.72
2019-03-15T19:27:53.738Z,6.60
2019-03-15T19:30:22.141Z,6.46
2019-03-15T19:32:54.636Z,5.78
2019-03-15T19:35:22.317Z,6.32
2019-03-15T19:37:50.716Z,6.36
2019-03-15T19:40:22.976Z,6.30
2019-03-15T19:42:55.248Z,6.29
2019-03-15T19:45:23.657Z,6.40
2019-03-15T19:47:52.067Z,6.27
2019-03-15T19:50:21.390Z,6.30
2019-03-15T19:52:49.806Z,6.20
2019-03-15T19:55:18.336Z,6.18
2019-03-15T19:57:46.821Z,6.26
2019-03-15T20:00:16.899Z,6.18
2019-03-15T20:02:45.951Z,6.23
2019-03-15T20:05:14.362Z,6.28
2019-03-15T20:07:42.928Z,6.27
2019-03-15T20:10:16.147Z,6.28
2019-03-15T20:12:43.342Z,6.17
2019-03-15T20:15:16.193Z,6.18
2019-03-15T20:17:44.629Z,6.08
2019-03-15T20:20:23.466Z,6.20
2019-03-15T20:22:53.686Z,6.18
2019-03-15T20:25:22.133Z,6.23
2019-03-15T20:27:50.602Z,6.24
2019-03-15T20:30:26.675Z,6.31
2019-03-15T20:32:56.666Z,6.28
2019-03-15T20:35:25.065Z,6.30
2019-03-15T20:37:53.560Z,6.26
2019-03-15T20:40:21.939Z,6.19
2019-03-15T20:42:52.824Z,6.22
2019-03-15T20:45:29.268Z,6.23
2019-03-15T20:48:01.506Z,6.14
2019-03-15T20:50:29.881Z,6.15
2019-03-15T20:53:08.534Z,6.11
2019-03-15T20:55:29.039Z,6.05
2019-03-15T20:57:57.646Z,6.01
2019-03-15T21:00:35.500Z,6.05
2019-03-15T21:02:56.221Z,6.04
2019-03-15T21:05:24.667Z,5.97
2019-03-15T21:07:54.156Z,5.94
2019-03-15T21:10:22.558Z,6.03
2019-03-15T21:12:53.764Z,6.06
2019-03-15T21:15:22.158Z,6.09
2019-03-15T21:17:50.577Z,6.09
2019-03-15T21:20:22.549Z,6.05
2019-03-15T21:22:50.230Z,6.08
2019-03-15T21:25:18.614Z,6.08
2019-03-15T21:27:53.572Z,6.13
2019-03-15T21:30:20.203Z,6.15
2019-03-15T21:32:52.324Z,6.20
2019-03-15T21:35:20.685Z,6.14
2019-03-15T21:37:49.228Z,6.10
2019-03-15T21:40:19.956Z,6.11
2019-03-15T21:42:49.402Z,6.09
2019-03-15T21:45:17.959Z,6.10
2019-03-15T21:47:46.342Z,6.04
2019-03-15T21:50:24.678Z,6.08
2019-03-15T21:52:54.097Z,6.12
2019-03-15T21:55:22.484Z,6.11
2019-03-15T21:57:51.029Z,6.20
2019-03-15T22:00:20.352Z,6.09
2019-03-15T22:02:48.753Z,6.06
2019-03-15T22:05:17.195Z,6.02
2019-03-15T22:07:45.600Z,5.92
2019-03-15T22:10:15.023Z,5.85
2019-03-15T22:12:43.580Z,5.87
2019-03-15T22:15:13.205Z,5.85
2019-03-15T22:17:45.397Z,5.85
2019-03-15T22:20:17.328Z,5.82
2019-03-15T22:22:46.836Z,5.83
2019-03-15T22:25:17.973Z,5.87
2019-03-15T22:27:49.822Z,5.86
2019-03-15T22:30:16.517Z,5.97
2019-03-15T22:32:44.993Z,5.98
2019-03-15T22:35:13.700Z,5.99
2019-03-15T22:37:42.103Z,5.98
2019-03-15T22:40:12.753Z,5.96
2019-03-15T22:42:41.285Z,5.94
2019-03-15T22:45:11.802Z,5.97
2019-03-15T22:47:40.217Z,5.99
2019-03-15T22:50:10.251Z,5.95
2019-03-15T22:52:41.999Z,6.02
2019-03-15T22:55:11.969Z,6.01
2019-03-15T22:57:41.285Z,6.11
2019-03-15T23:00:23.508Z,6.09
2019-03-15T23:02:52.119Z,6.06
2019-03-15T23:05:20.671Z,6.10
2019-03-15T23:07:49.093Z,6.09
2019-03-15T23:10:17.525Z,6.11
2019-03-15T23:12:45.919Z,6.08
2019-03-15T23:15:14.304Z,6.01
2019-03-15T23:17:42.732Z,5.99
2019-03-15T23:20:14.503Z,6.04
2019-03-15T23:22:42.928Z,6.08
2019-03-15T23:25:11.369Z,6.12
2019-03-15T23:27:39.777Z,6.04
2019-03-15T23:30:17.791Z,6.05
2019-03-15T23:32:46.179Z,6.01
2019-03-15T23:35:14.645Z,6.01
2019-03-15T23:37:43.066Z,5.94
2019-03-15T23:40:14.929Z,5.86
2019-03-15T23:42:48.968Z,5.80
2019-03-15T23:45:17.453Z,5.74
2019-03-15T23:47:45.930Z,5.68
2019-03-15T23:50:15.250Z,5.72
2019-03-15T23:52:44.724Z,5.64
2019-03-15T23:55:13.307Z,5.65
2019-03-15T23:57:41.797Z,5.70
